createdAt,value
2017-09-23T00:02:04.564Z,16.20
2017-09-23T00:04:32.244Z,14.17
2017-09-23T00:06:59.909Z,17.07
2017-09-23T00:09:27.581Z,15.60
2017-09-23T00:11:55.161Z,16.77
2017-09-23T00:14:23.521Z,14.93
2017-09-23T00:16:51.120Z,15.52
2017-09-23T00:19:18.687Z,17.07
2017-09-23T00:21:46.284Z,14.37
2017-09-23T00:24:13.854Z,15.30
2017-09-23T00:26:41.444Z,13.90
2017-09-23T00:29:09.779Z,14.87
2017-09-23T00:31:37.759Z,15.77
2017-09-23T00:34:06.148Z,16.03
2017-09-23T00:36:33.728Z,16.70
2017-09-23T00:39:03.828Z,18.05
2017-09-23T00:41:31.405Z,17.43
2017-09-23T00:43:59.769Z,17.45
2017-09-23T00:46:27.348Z,18.10
2017-09-23T00:48:59.404Z,16.50
2017-09-23T00:51:27.061Z,17.70
2017-09-23T00:53:54.892Z,18.30
2017-09-23T00:56:22.464Z,16.47
2017-09-23T00:58:50.031Z,17.97
2017-09-23T01:01:17.665Z,18.58
2017-09-23T01:03:45.240Z,18.97
2017-09-23T01:06:12.936Z,18.70
2017-09-23T01:08:41.303Z,18.67
2017-09-23T01:11:10.400Z,16.87
2017-09-23T01:13:37.968Z,20.33
2017-09-23T01:16:05.564Z,20.37
2017-09-23T01:18:33.145Z,20.50
2017-09-23T01:21:03.578Z,21.02
2017-09-23T01:23:31.390Z,23.70
2017-09-23T01:26:00.026Z,24.80
2017-09-23T01:28:27.995Z,22.37
2017-09-23T01:30:56.682Z,19.60
2017-09-23T01:33:24.299Z,19.97
2017-09-23T01:35:52.684Z,19.93
2017-09-23T01:38:21.049Z,20.57
2017-09-23T01:40:49.392Z,21.13
2017-09-23T01:43:16.980Z,20.80
2017-09-23T01:45:44.548Z,20.00
2017-09-23T01:48:12.928Z,19.85
2017-09-23T01:50:42.011Z,21.40
2017-09-23T01:53:10.396Z,22.92
2017-09-23T01:55:37.963Z,22.60
2017-09-23T01:58:05.627Z,21.47
2017-09-23T02:00:33.968Z,20.70
2017-09-23T02:03:02.979Z,21.73
2017-09-23T02:05:30.581Z,22.77
2017-09-23T02:07:58.917Z,21.95
2017-09-23T02:10:26.508Z,22.00
2017-09-23T02:12:54.843Z,24.90
2017-09-23T02:15:22.431Z,25.40
2017-09-23T02:17:50.000Z,26.27
2017-09-23T02:20:19.124Z,25.80
2017-09-23T02:22:46.689Z,24.97
2017-09-23T02:25:14.257Z,26.08
2017-09-23T02:27:41.875Z,25.07
2017-09-23T02:30:10.512Z,27.20
2017-09-23T02:32:38.124Z,25.57
2017-09-23T02:35:06.460Z,25.10
2017-09-23T02:37:34.053Z,24.70
2017-09-23T02:40:04.049Z,24.58
2017-09-23T02:42:31.664Z,25.50
2017-09-23T02:45:00.924Z,24.17
2017-09-23T02:47:28.643Z,26.00
2017-09-23T02:49:56.991Z,25.70
2017-09-23T02:52:25.335Z,24.10
2017-09-23T02:54:52.921Z,25.87
2017-09-23T02:57:20.500Z,25.98
2017-09-23T02:59:49.248Z,24.80
2017-09-23T03:02:16.836Z,25.10
2017-09-23T03:04:44.499Z,24.37
2017-09-23T03:07:12.856Z,27.37
2017-09-23T03:09:40.424Z,27.60
2017-09-23T03:12:08.016Z,22.60
2017-09-23T03:14:36.355Z,23.53
2017-09-23T03:17:04.140Z,23.57
2017-09-23T03:19:33.223Z,21.70
2017-09-23T03:22:02.743Z,23.35
2017-09-23T03:24:30.328Z,21.63
2017-09-23T03:26:58.668Z,23.43
2017-09-23T03:29:26.265Z,24.05
2017-09-23T03:31:54.601Z,27.80
2017-09-23T03:34:22.284Z,23.40
2017-09-23T03:36:49.859Z,24.90
2017-09-23T03:39:18.220Z,27.30
2017-09-23T03:41:45.804Z,26.77
2017-09-23T03:44:14.179Z,26.20
2017-09-23T03:46:42.516Z,26.43
2017-09-23T03:49:10.508Z,25.20
2017-09-23T03:51:38.843Z,25.07
2017-09-23T03:54:06.420Z,22.90
2017-09-23T03:56:34.016Z,24.27
2017-09-23T03:59:03.896Z,23.70
2017-09-23T04:01:31.488Z,25.63
2017-09-23T04:03:59.148Z,23.60
2017-09-23T04:06:26.815Z,25.53
2017-09-23T04:08:54.473Z,26.40
2017-09-23T04:11:23.568Z,24.60
2017-09-23T04:13:51.128Z,26.90
2017-09-23T04:16:18.739Z,25.05
2017-09-23T04:18:46.308Z,27.47
2017-09-23T04:21:13.885Z,25.80
2017-09-23T04:23:41.576Z,28.37
2017-09-23T04:26:09.914Z,25.17
2017-09-23T04:28:37.520Z,26.33
2017-09-23T04:31:05.184Z,25.90
2017-09-23T04:33:32.955Z,26.57
2017-09-23T04:36:02.832Z,25.83
2017-09-23T04:38:30.397Z,27.73
2017-09-23T04:40:58.071Z,22.43
2017-09-23T04:43:25.636Z,24.40
2017-09-23T04:45:53.220Z,20.90
2017-09-23T04:48:21.582Z,21.52
2017-09-23T04:50:49.964Z,19.67
2017-09-23T04:53:17.532Z,18.87
2017-09-23T04:55:45.116Z,19.40
2017-09-23T04:58:13.449Z,17.37
2017-09-23T05:00:41.228Z,17.93
2017-09-23T05:03:08.788Z,18.33
2017-09-23T05:05:37.115Z,19.10
2017-09-23T05:08:04.731Z,16.40
2017-09-23T05:10:32.296Z,18.37
2017-09-23T05:13:01.577Z,16.50
2017-09-23T05:15:29.140Z,16.75
2017-09-23T05:17:56.811Z,14.60
2017-09-23T05:20:24.389Z,16.03
2017-09-23T05:22:52.776Z,15.63
2017-09-23T05:25:21.345Z,14.75
2017-09-23T05:27:49.684Z,14.20
2017-09-23T05:30:17.272Z,13.00
2017-09-23T05:32:44.839Z,13.80
2017-09-23T05:35:12.504Z,13.47
2017-09-23T05:37:41.592Z,13.43
2017-09-23T05:40:09.183Z,13.33
2017-09-23T05:42:37.644Z,14.07
2017-09-23T05:45:05.309Z,11.20
2017-09-23T05:47:32.880Z,11.50
2017-09-23T05:50:02.780Z,11.80
2017-09-23T05:52:30.356Z,12.27
2017-09-23T05:54:58.864Z,12.43
2017-09-23T05:57:26.438Z,13.17
2017-09-23T05:59:54.331Z,13.50
2017-09-23T06:02:21.908Z,13.65
2017-09-23T06:04:49.572Z,13.77
2017-09-23T06:07:17.945Z,12.80
2017-09-23T06:09:45.520Z,13.37
2017-09-23T06:12:13.991Z,16.07
2017-09-23T06:14:41.662Z,16.10
2017-09-23T06:17:09.265Z,14.10
2017-09-23T06:19:36.880Z,13.50
2017-09-23T06:22:04.479Z,11.85
2017-09-23T06:24:32.100Z,14.63
2017-09-23T06:26:59.687Z,13.27
2017-09-23T06:29:29.001Z,13.60
2017-09-23T06:31:56.630Z,13.90
2017-09-23T06:34:24.208Z,13.60
2017-09-23T06:36:52.540Z,14.47
2017-09-23T06:39:20.576Z,12.37
2017-09-23T06:41:48.143Z,12.20
2017-09-23T06:44:15.740Z,12.87
2017-09-23T06:46:43.312Z,12.35
2017-09-23T06:49:10.911Z,11.23
2017-09-23T06:51:39.251Z,11.80
2017-09-23T06:54:06.892Z,11.95
2017-09-23T06:56:34.464Z,11.37
2017-09-23T06:59:04.523Z,11.50
2017-09-23T07:01:32.860Z,11.30
2017-09-23T07:04:02.068Z,12.20
2017-09-23T07:06:29.665Z,11.00
2017-09-23T07:08:58.045Z,10.70
2017-09-23T07:11:26.400Z,10.07
2017-09-23T07:13:53.972Z,10.35
2017-09-23T07:16:22.313Z,10.43
2017-09-23T07:18:49.904Z,10.33
2017-09-23T07:21:17.491Z,10.82
2017-09-23T07:23:45.088Z,10.03
2017-09-23T07:26:12.656Z,10.10
2017-09-23T07:28:40.248Z,10.90
2017-09-23T07:31:07.913Z,11.25
2017-09-23T07:33:35.508Z,11.43
2017-09-23T07:36:03.852Z,11.10
2017-09-23T07:38:31.508Z,11.77
2017-09-23T07:40:59.079Z,10.30
2017-09-23T07:43:27.456Z,10.97
2017-09-23T07:45:55.025Z,9.90
2017-09-23T07:48:23.365Z,10.17
2017-09-23T07:50:51.060Z,11.53
2017-09-23T07:53:18.628Z,9.23
2017-09-23T07:55:46.983Z,10.52
2017-09-23T07:58:14.597Z,9.80
2017-09-23T08:00:42.201Z,11.10
2017-09-23T08:03:09.768Z,10.70
2017-09-23T08:05:37.376Z,10.37
2017-09-23T08:08:05.166Z,13.03
2017-09-23T08:10:33.032Z,12.93
2017-09-23T08:13:03.312Z,13.00
2017-09-23T08:15:31.284Z,13.57
2017-09-23T08:17:59.293Z,12.73
2017-09-23T08:20:27.988Z,12.63
2017-09-23T08:22:55.951Z,13.00
2017-09-23T08:25:23.823Z,12.20
2017-09-23T08:27:51.800Z,12.50
2017-09-23T08:30:19.797Z,12.80
2017-09-23T08:32:48.152Z,13.07
2017-09-23T08:35:15.744Z,12.63
2017-09-23T08:37:43.400Z,12.10
2017-09-23T08:40:11.060Z,12.67
2017-09-23T08:42:38.628Z,12.03
2017-09-23T08:45:06.234Z,13.90
2017-09-23T08:47:33.824Z,13.60
2017-09-23T08:50:03.868Z,12.88
2017-09-23T08:52:31.439Z,13.27
2017-09-23T08:54:59.796Z,13.50
2017-09-23T08:57:27.372Z,14.43
2017-09-23T08:59:55.947Z,14.20
2017-09-23T09:02:23.612Z,15.17
2017-09-23T09:04:51.205Z,14.47
2017-09-23T09:07:18.844Z,14.10
2017-09-23T09:09:47.217Z,13.77
2017-09-23T09:12:14.832Z,13.87
2017-09-23T09:14:42.409Z,14.10
2017-09-23T09:17:09.990Z,13.80
2017-09-23T09:19:37.585Z,14.77
2017-09-23T09:22:05.925Z,14.10
2017-09-23T09:24:33.614Z,14.07
2017-09-23T09:27:03.707Z,15.10
2017-09-23T09:29:31.303Z,16.00
2017-09-23T09:31:59.642Z,15.33
2017-09-23T09:34:27.238Z,17.80
2017-09-23T09:36:55.571Z,16.47
2017-09-23T09:39:23.160Z,14.10
2017-09-23T09:41:51.501Z,17.27
2017-09-23T09:44:19.096Z,18.30
2017-09-23T09:46:46.660Z,18.13
2017-09-23T09:49:14.397Z,18.48
2017-09-23T09:51:41.968Z,16.77
2017-09-23T09:54:09.537Z,16.50
2017-09-23T09:56:37.209Z,19.30
2017-09-23T09:59:04.784Z,18.10
2017-09-23T10:01:33.172Z,16.67
2017-09-23T10:04:03.036Z,17.62
2017-09-23T10:06:30.604Z,18.73
2017-09-23T10:08:58.270Z,18.10
2017-09-23T10:11:25.840Z,18.77
2017-09-23T10:13:53.435Z,19.23
2017-09-23T10:16:21.016Z,17.05
2017-09-23T10:18:48.604Z,17.33
2017-09-23T10:21:16.172Z,16.27
2017-09-23T10:23:43.774Z,16.50
2017-09-23T10:26:12.116Z,14.18
2017-09-23T10:28:40.096Z,17.30
2017-09-23T10:31:07.664Z,17.10
2017-09-23T10:33:35.324Z,16.97
2017-09-23T10:36:04.828Z,17.70
2017-09-23T10:38:32.488Z,17.40
2017-09-23T10:41:02.618Z,17.13
2017-09-23T10:43:30.191Z,19.47
2017-09-23T10:45:58.760Z,19.60
2017-09-23T10:48:26.604Z,19.30
2017-09-23T10:50:54.284Z,20.13
2017-09-23T10:53:21.856Z,20.90
2017-09-23T10:55:50.201Z,21.70
2017-09-23T10:58:17.998Z,20.25
2017-09-23T11:00:45.571Z,20.87
2017-09-23T11:03:13.941Z,21.87
2017-09-23T11:05:42.304Z,21.00
2017-09-23T11:08:10.210Z,20.90
2017-09-23T11:10:38.548Z,20.90
2017-09-23T11:13:06.224Z,20.62
2017-09-23T11:15:33.885Z,21.90
2017-09-23T11:18:03.815Z,20.35
2017-09-23T11:20:32.188Z,21.00
2017-09-23T11:22:59.758Z,19.70
2017-09-23T11:25:28.215Z,22.20
2017-09-23T11:27:55.884Z,20.30
2017-09-23T11:30:23.484Z,21.57
2017-09-23T11:32:51.064Z,21.40
2017-09-23T11:35:18.773Z,21.40
2017-09-23T11:37:46.344Z,21.17
2017-09-23T11:40:14.727Z,21.67
2017-09-23T11:42:43.066Z,18.53
2017-09-23T11:45:10.639Z,19.73
2017-09-23T11:47:39.005Z,20.13
2017-09-23T11:50:06.583Z,20.10
2017-09-23T11:52:34.179Z,19.90
2017-09-23T11:55:03.856Z,18.57
2017-09-23T11:57:31.524Z,18.60
2017-09-23T11:59:59.860Z,17.20
2017-09-23T12:02:27.432Z,16.37
2017-09-23T12:04:55.125Z,15.90
2017-09-23T12:07:24.240Z,15.40
2017-09-23T12:09:52.580Z,15.53
2017-09-23T12:12:20.160Z,17.90
2017-09-23T12:14:47.759Z,16.03
2017-09-23T12:17:15.388Z,16.23
2017-09-23T12:19:43.005Z,16.90
2017-09-23T12:22:10.612Z,16.48
2017-09-23T12:24:38.254Z,18.20
2017-09-23T12:27:05.827Z,18.77
2017-09-23T12:29:33.597Z,18.47
2017-09-23T12:32:03.617Z,17.37
2017-09-23T12:34:31.200Z,17.00
2017-09-23T12:36:59.563Z,17.40
2017-09-23T12:39:27.904Z,18.30
2017-09-23T12:41:55.591Z,17.20
2017-09-23T12:44:23.932Z,17.00
2017-09-23T12:46:51.552Z,15.27
2017-09-23T12:49:19.917Z,16.00
2017-09-23T12:51:47.580Z,15.67
2017-09-23T12:54:15.171Z,14.70
2017-09-23T12:56:42.804Z,14.17
2017-09-23T12:59:11.287Z,15.67
2017-09-23T13:01:40.384Z,13.97
2017-09-23T13:04:07.953Z,15.15
2017-09-23T13:06:36.419Z,17.10
2017-09-23T13:09:04.025Z,14.47
2017-09-23T13:11:31.643Z,14.77
2017-09-23T13:13:59.223Z,12.43
2017-09-23T13:16:27.792Z,11.80
2017-09-23T13:18:56.124Z,11.70
2017-09-23T13:21:23.697Z,12.20
2017-09-23T13:23:51.297Z,12.70
2017-09-23T13:26:19.633Z,13.60
2017-09-23T13:28:47.335Z,12.87
2017-09-23T13:31:16.432Z,11.57
2017-09-23T13:33:44.027Z,11.30
2017-09-23T13:36:11.712Z,10.45
2017-09-23T13:38:39.300Z,10.27
2017-09-23T13:41:07.697Z,11.20
2017-09-23T13:43:35.460Z,10.87
2017-09-23T13:46:04.742Z,10.77
2017-09-23T13:48:32.317Z,8.63
2017-09-23T13:50:59.904Z,9.40
2017-09-23T13:53:28.246Z,9.83
2017-09-23T13:55:55.832Z,10.20
2017-09-23T13:58:24.165Z,9.77
2017-09-23T14:00:51.754Z,9.00
2017-09-23T14:03:20.857Z,9.85
2017-09-23T14:05:49.216Z,9.03
2017-09-23T14:08:16.792Z,9.57
2017-09-23T14:10:44.375Z,8.97
2017-09-23T14:13:12.704Z,8.23
2017-09-23T14:15:41.237Z,8.90
2017-09-23T14:18:09.564Z,8.13
2017-09-23T14:20:37.156Z,7.77
2017-09-23T14:23:04.719Z,8.70
2017-09-23T14:25:32.319Z,8.40
2017-09-23T14:27:59.940Z,8.57
2017-09-23T14:30:27.536Z,9.27
2017-09-23T14:32:55.169Z,9.93
2017-09-23T14:35:22.868Z,8.93
2017-09-23T14:37:50.440Z,9.50
2017-09-23T14:40:18.012Z,9.87
2017-09-23T14:42:45.720Z,9.47
2017-09-23T14:45:13.292Z,9.88
2017-09-23T14:47:41.678Z,10.37
2017-09-23T14:50:10.021Z,10.77
2017-09-23T14:52:37.612Z,11.93
2017-09-23T14:55:05.972Z,11.40
2017-09-23T14:57:33.564Z,12.60
2017-09-23T15:00:03.122Z,11.63
2017-09-23T15:02:31.520Z,12.93
2017-09-23T15:04:59.088Z,13.27
2017-09-23T15:07:26.680Z,12.23
2017-09-23T15:09:54.252Z,11.80
2017-09-23T15:12:21.820Z,12.60
2017-09-23T15:14:49.417Z,11.80
2017-09-23T15:17:16.992Z,12.00
2017-09-23T15:19:44.735Z,11.40
2017-09-23T15:22:12.316Z,11.23
2017-09-23T15:24:39.909Z,12.10
2017-09-23T15:27:07.480Z,11.00
2017-09-23T15:29:35.096Z,11.50
2017-09-23T15:32:04.692Z,10.88
2017-09-23T15:34:32.364Z,11.67
2017-09-23T15:36:59.965Z,10.55
2017-09-23T15:39:27.549Z,10.10
2017-09-23T15:41:55.142Z,10.60
2017-09-23T15:44:23.524Z,10.90
2017-09-23T15:46:51.187Z,9.85
2017-09-23T15:49:18.856Z,10.52
2017-09-23T15:51:46.431Z,10.53
2017-09-23T15:54:14.796Z,11.05
2017-09-23T15:56:42.363Z,10.00
2017-09-23T15:59:10.723Z,9.73
2017-09-23T16:01:38.292Z,10.50
2017-09-23T16:04:06.668Z,9.60
2017-09-23T16:06:34.236Z,9.60
2017-09-23T16:09:03.849Z,7.55
2017-09-23T16:11:31.437Z,7.77
2017-09-23T16:13:59.001Z,8.50
2017-09-23T16:16:26.633Z,7.77
2017-09-23T16:18:55.044Z,7.80
2017-09-23T16:21:22.637Z,7.40
2017-09-23T16:23:50.323Z,8.50
2017-09-23T16:26:17.993Z,7.62
2017-09-23T16:28:45.670Z,6.93
2017-09-23T16:31:14.036Z,6.90
2017-09-23T16:33:41.596Z,6.47
2017-09-23T16:36:09.261Z,7.65
2017-09-23T16:38:36.927Z,7.10
2017-09-23T16:41:05.284Z,6.83
2017-09-23T16:43:32.853Z,6.73
2017-09-23T16:46:02.095Z,6.83
2017-09-23T16:48:29.656Z,6.20
2017-09-23T16:50:57.399Z,6.13
2017-09-23T16:53:25.735Z,6.40
2017-09-23T16:55:53.304Z,6.40
2017-09-23T16:58:21.355Z,6.30
2017-09-23T17:00:48.951Z,5.97
2017-09-23T17:03:16.625Z,7.20
2017-09-23T17:05:44.991Z,6.40
2017-09-23T17:08:12.568Z,5.90
2017-09-23T17:10:40.936Z,7.10
2017-09-23T17:13:08.596Z,6.05
2017-09-23T17:15:36.266Z,5.90
2017-09-23T17:18:04.032Z,6.67
2017-09-23T17:20:32.431Z,6.60
2017-09-23T17:23:01.681Z,5.93
2017-09-23T17:25:29.268Z,6.57
2017-09-23T17:27:56.827Z,6.20
2017-09-23T17:30:24.413Z,6.20
2017-09-23T17:32:53.588Z,6.83
2017-09-23T17:35:21.181Z,7.20
2017-09-23T17:37:48.769Z,7.07
2017-09-23T17:40:16.334Z,6.30
2017-09-23T17:42:43.920Z,6.83
2017-09-23T17:45:11.600Z,6.82
2017-09-23T17:47:39.951Z,6.00
2017-09-23T17:50:07.520Z,6.97
2017-09-23T17:52:35.192Z,7.07
2017-09-23T17:55:04.772Z,6.85
2017-09-23T17:57:32.336Z,6.63
2017-09-23T18:00:00.025Z,7.30
2017-09-23T18:02:27.592Z,7.93
2017-09-23T18:04:55.180Z,7.43
2017-09-23T18:07:23.527Z,7.00
2017-09-23T18:09:51.117Z,8.43
2017-09-23T18:12:18.688Z,8.53
2017-09-23T18:14:46.316Z,7.93
2017-09-23T18:17:13.884Z,9.70
2017-09-23T18:19:42.248Z,8.97
2017-09-23T18:22:09.816Z,9.30
2017-09-23T18:24:37.424Z,9.33
2017-09-23T18:27:04.992Z,9.73
2017-09-23T18:29:32.556Z,9.73
2017-09-23T18:32:01.836Z,9.83
2017-09-23T18:34:29.456Z,9.73
2017-09-23T18:36:57.046Z,9.77
2017-09-23T18:39:25.399Z,9.67
2017-09-23T18:41:53.060Z,9.27
2017-09-23T18:44:20.640Z,9.93
2017-09-23T18:46:48.996Z,9.60
2017-09-23T18:49:16.568Z,9.68
2017-09-23T18:51:44.953Z,10.67
2017-09-23T18:54:13.608Z,10.10
2017-09-23T18:56:41.173Z,10.73
2017-09-23T18:59:08.960Z,10.20
2017-09-23T19:01:37.304Z,10.40
2017-09-23T19:04:04.895Z,10.97
2017-09-23T19:06:32.552Z,11.10
2017-09-23T19:09:01.070Z,11.70
2017-09-23T19:11:28.644Z,11.30
2017-09-23T19:13:56.257Z,11.60
2017-09-23T19:16:24.596Z,12.10
2017-09-23T19:18:52.168Z,12.68
2017-09-23T19:21:19.760Z,11.80
2017-09-23T19:23:47.329Z,12.37
2017-09-23T19:26:14.980Z,12.63
2017-09-23T19:28:42.552Z,13.87
2017-09-23T19:31:10.912Z,13.32
2017-09-23T19:33:38.483Z,13.40
2017-09-23T19:36:06.863Z,12.40
2017-09-23T19:38:34.529Z,14.20
2017-09-23T19:41:03.956Z,13.75
2017-09-23T19:43:32.296Z,14.07
2017-09-23T19:45:59.868Z,14.23
2017-09-23T19:48:28.223Z,14.40
2017-09-23T19:50:55.792Z,14.93
2017-09-23T19:53:23.404Z,14.17
2017-09-23T19:55:50.978Z,14.40
2017-09-23T19:58:18.587Z,13.57
2017-09-23T20:00:46.152Z,13.83
2017-09-23T20:03:13.745Z,13.00
2017-09-23T20:05:41.316Z,14.33
2017-09-23T20:08:08.912Z,14.25
2017-09-23T20:10:36.501Z,13.80
2017-09-23T20:13:04.896Z,13.10
2017-09-23T20:15:33.224Z,12.17
2017-09-23T20:18:02.945Z,12.90
2017-09-23T20:20:30.545Z,12.70
2017-09-23T20:22:58.880Z,12.30
2017-09-23T20:25:26.468Z,11.67
2017-09-23T20:27:54.817Z,11.48
2017-09-23T20:30:22.508Z,11.87
2017-09-23T20:32:50.088Z,12.33
2017-09-23T20:35:18.450Z,12.30
2017-09-23T20:37:46.020Z,11.27
2017-09-23T20:40:14.388Z,12.17
2017-09-23T20:42:41.965Z,11.80
2017-09-23T20:45:10.361Z,13.35
2017-09-23T20:47:37.932Z,12.63
2017-09-23T20:50:05.508Z,12.73
2017-09-23T20:52:33.097Z,13.60
2017-09-23T20:55:02.695Z,13.35
2017-09-23T20:57:30.380Z,13.13
2017-09-23T20:59:57.961Z,15.57
2017-09-23T21:02:26.323Z,16.47
2017-09-23T21:04:53.892Z,15.03
2017-09-23T21:07:22.272Z,16.23
2017-09-23T21:09:50.612Z,14.83
2017-09-23T21:12:18.225Z,14.80
2017-09-23T21:14:46.581Z,13.63
2017-09-23T21:17:14.152Z,14.77
2017-09-23T21:19:42.955Z,12.70
2017-09-23T21:22:11.296Z,12.25
2017-09-23T21:24:40.508Z,11.90
2017-09-23T21:27:09.589Z,11.73
2017-09-23T21:29:37.184Z,12.90
2017-09-23T21:32:05.552Z,14.27
2017-09-23T21:34:33.908Z,13.83
2017-09-23T21:37:02.901Z,12.70
2017-09-23T21:39:30.583Z,11.73
2017-09-23T21:41:58.240Z,12.37
2017-09-23T21:44:26.089Z,13.40
2017-09-23T21:46:53.664Z,12.10
2017-09-23T21:49:21.336Z,12.88
2017-09-23T21:51:48.929Z,12.20
2017-09-23T21:54:16.500Z,11.93
2017-09-23T21:56:44.117Z,12.63
2017-09-23T21:59:11.688Z,12.33
2017-09-23T22:01:40.051Z,13.63
2017-09-23T22:04:07.615Z,12.70
2017-09-23T22:06:35.229Z,14.00
2017-09-23T22:09:04.765Z,13.10
2017-09-23T22:11:32.340Z,14.80
2017-09-23T22:13:59.935Z,15.70
2017-09-23T22:16:27.503Z,16.57
2017-09-23T22:18:55.095Z,15.67
2017-09-23T22:21:22.688Z,15.50
2017-09-23T22:23:50.638Z,14.27
2017-09-23T22:26:18.320Z,14.15
2017-09-23T22:28:45.933Z,15.17
2017-09-23T22:31:13.499Z,13.68
2017-09-23T22:33:41.104Z,13.87
2017-09-23T22:36:09.465Z,14.30
2017-09-23T22:38:37.037Z,13.17
2017-09-23T22:41:04.632Z,14.20
2017-09-23T22:43:32.205Z,15.00
2017-09-23T22:45:59.800Z,14.37
2017-09-23T22:48:27.368Z,14.67
2017-09-23T22:50:54.960Z,14.00
2017-09-23T22:53:23.296Z,13.63
2017-09-23T22:55:50.884Z,13.27
2017-09-23T22:58:18.456Z,14.33
2017-09-23T23:00:46.840Z,13.03
2017-09-23T23:03:15.172Z,12.48
2017-09-23T23:05:42.744Z,12.57
2017-09-23T23:08:10.436Z,12.77
2017-09-23T23:10:38.005Z,12.57
2017-09-23T23:13:06.364Z,11.73
2017-09-23T23:15:33.936Z,12.00
2017-09-23T23:20:42.543Z,11.53
2017-09-23T23:23:10.128Z,11.85
2017-09-23T23:25:37.700Z,11.50
2017-09-23T23:28:06.073Z,11.50
2017-09-23T23:30:33.664Z,10.90
2017-09-23T23:33:03.723Z,11.00
2017-09-23T23:35:31.410Z,11.80
2017-09-23T23:37:58.976Z,10.93
2017-09-23T23:40:26.631Z,11.87
2017-09-23T23:42:54.288Z,11.80
2017-09-23T23:45:22.644Z,10.43
2017-09-23T23:47:50.232Z,11.43
2017-09-23T23:50:17.849Z,10.63
2017-09-23T23:52:45.413Z,10.40
2017-09-23T23:55:12.988Z,10.90
2017-09-23T23:57:40.581Z,11.43
